Time;durP1;ratioP1;P1;durP2;ratioP2;P2;SDS_P1;SDS_P2;PMS_P1;PMS_P2;Temp;Humidity;BMP_temperature;BMP_pressure;BME280_temperature;BME280_humidity;BME280_pressure;Samples;Min_cycle;Max_cycle;Signal;HPM_P1;HPM_P2
2020/12/18 00:00:32;;;;;;;10.10;7.40;;;25.60;82.10;;;;;;5045923;28;20028;-89
2020/12/18 00:04:11;;;;;;;11.70;7.30;;;25.50;82.70;;;;;;4992496;28;20094;-89
2020/12/18 00:06:49;;;;;;;7.80;5.72;;;25.50;82.40;;;;;;4969998;28;20044;-91
2020/12/18 00:09:16;;;;;;;6.15;4.95;;;25.50;82.10;;;;;;5003677;28;20030;-91
2020/12/18 00:12:31;;;;;;;5.20;3.50;;;25.50;82.50;;;;;;4988527;28;20031;-92
2020/12/18 00:15:14;;;;;;;5.25;3.65;;;25.50;82.10;;;;;;4969171;28;20038;-92
2020/12/18 00:22:15;;;;;;;8.20;3.17;;;25.50;82.70;;;;;;4918504;29;20031;-92
2020/12/18 00:24:44;;;;;;;7.72;3.80;;;25.40;82.90;;;;;;5098307;28;20106;-90
2020/12/18 00:27:22;;;;;;;6.25;3.40;;;25.40;83.30;;;;;;5107099;28;20023;-92
2020/12/18 00:29:49;;;;;;;4.45;2.60;;;25.40;83.30;;;;;;5104915;28;20023;-91
2020/12/18 00:32:32;;;;;;;5.03;2.80;;;25.40;83.20;;;;;;5105801;28;20027;-93
2020/12/18 00:35:20;;;;;;;3.17;2.53;;;25.30;82.90;;;;;;5106081;28;20024;-92
2020/12/18 00:37:49;;;;;;;5.00;2.75;;;25.40;82.80;;;;;;5104150;28;20049;-89
2020/12/18 00:44:01;;;;;;;3.70;2.63;;;25.40;82.80;;;;;;5043322;28;20025;-89
2020/12/18 00:49:03;;;;;;;6.40;2.00;;;25.50;82.90;;;;;;3057539;26;20051;-90
2020/12/18 00:51:32;;;;;;;2.78;1.77;;;25.40;83.10;;;;;;5125600;28;20047;-90
2020/12/18 00:54:08;;;;;;;5.05;2.33;;;25.40;82.60;;;;;;5108300;28;20188;-89
2020/12/18 00:56:38;;;;;;;5.20;2.35;;;25.50;83.00;;;;;;5083637;28;20103;-90
2020/12/18 00:59:04;;;;;;;3.83;2.13;;;25.40;83.30;;;;;;5066449;28;20040;-89
2020/12/18 01:02:05;;;;;;;3.42;2.30;;;25.40;83.40;;;;;;5083834;28;20032;-90
2020/12/18 01:04:32;;;;;;;4.18;2.00;;;25.30;84.40;;;;;;5004431;28;20222;-86
2020/12/18 01:07:24;;;;;;;2.13;1.63;;;25.30;83.50;;;;;;5005414;28;20037;-86
2020/12/18 01:10:01;;;;;;;4.10;2.28;;;25.30;83.60;;;;;;5003884;28;20215;-86
2020/12/18 01:16:00;;;;;;;4.22;1.90;;;25.30;84.10;;;;;;4935909;29;20030;-89
2020/12/18 01:19:11;;;;;;;4.10;2.00;;;25.30;84.10;;;;;;4966733;28;20031;-89
2020/12/18 01:21:44;;;;;;;4.15;1.80;;;25.20;84.00;;;;;;4997515;28;20041;-89
2020/12/18 01:24:20;;;;;;;7.50;2.25;;;25.30;83.80;;;;;;5024317;28;20105;-91
2020/12/18 01:27:04;;;;;;;5.00;3.50;;;25.30;84.10;;;;;;5025929;28;20101;-90
2020/12/18 01:29:38;;;;;;;5.07;3.58;;;25.30;84.60;;;;;;4988360;28;20090;-89
2020/12/18 01:32:36;;;;;;;3.85;2.65;;;25.40;84.60;;;;;;4989797;28;20091;-88
2020/12/18 01:35:14;;;;;;;4.75;2.90;;;25.40;84.00;;;;;;4974356;28;20026;-88
2020/12/18 01:37:51;;;;;;;3.85;2.10;;;25.40;84.10;;;;;;5010362;28;20358;-89
2020/12/18 01:40:20;;;;;;;4.63;2.50;;;25.30;83.90;;;;;;5009007;28;20096;-87
2020/12/18 01:42:47;;;;;;;26.85;7.25;;;25.30;83.30;;;;;;5008478;28;20049;-87
2020/12/18 01:46:03;;;;;;;;;;;;;;;;;;;;;
2020/12/18 01:48:52;;;;;;;8.25;3.63;;;25.40;84.80;;;;;;4966243;29;20031;-89
2020/12/18 01:51:40;;;;;;;5.83;2.80;;;25.40;83.50;;;;;;4949026;29;20035;-90
2020/12/18 01:57:14;;;;;;;9.82;2.10;;;25.40;82.90;;;;;;4987042;28;20032;-88
2020/12/18 01:59:56;;;;;;;3.90;1.90;;;25.40;83.10;;;;;;5110494;28;20028;-88
2020/12/18 02:02:32;;;;;;;2.90;1.70;;;25.40;82.90;;;;;;5107123;28;20078;-91
2020/12/18 02:08:30;;;;;;;4.50;1.75;;;25.40;82.40;;;;;;5092516;28;20046;-90
2020/12/18 02:11:12;;;;;;;4.45;1.80;;;25.40;82.00;;;;;;5051981;28;20241;-90
2020/12/18 02:13:43;;;;;;;5.28;1.48;;;25.40;82.20;;;;;;5069909;28;20080;-89
2020/12/18 02:16:36;;;;;;;3.75;1.27;;;25.40;82.40;;;;;;5037567;28;20025;-90
2020/12/18 02:19:14;;;;;;;4.40;1.13;;;25.40;83.20;;;;;;5065140;28;20033;-90
2020/12/18 02:21:48;;;;;;;3.03;1.30;;;25.40;82.70;;;;;;5048723;28;20111;-90
2020/12/18 02:24:38;;;;;;;4.93;1.30;;;25.40;82.20;;;;;;5046836;28;20040;-90
2020/12/18 02:27:05;;;;;;;4.35;1.30;;;25.40;82.60;;;;;;5069427;28;20032;-89
2020/12/18 02:29:57;;;;;;;2.17;1.50;;;25.50;82.40;;;;;;5087919;28;20051;-90
2020/12/18 02:32:36;;;;;;;3.05;1.20;;;25.50;83.20;;;;;;5089693;28;20017;-89
2020/12/18 02:35:22;;;;;;;2.13;0.90;;;25.50;82.10;;;;;;5040202;28;20054;-92
2020/12/18 02:37:54;;;;;;;2.25;1.20;;;25.40;80.90;;;;;;5072830;28;20028;-90
2020/12/18 02:40:42;;;;;;;2.08;0.93;;;25.40;82.20;;;;;;5086763;28;20036;-92
2020/12/18 02:43:08;;;;;;;5.30;0.90;;;25.40;81.90;;;;;;5010884;28;20033;-90
2020/12/18 02:46:06;;;;;;;3.60;0.88;;;25.40;81.00;;;;;;5011169;28;20030;-88
2020/12/18 02:49:11;;;;;;;;;;;;;;;;;;;;;
2020/12/18 02:51:49;;;;;;;5.93;1.20;;;25.40;82.00;;;;;;4969379;28;20049;-89
2020/12/18 02:54:34;;;;;;;3.10;0.90;;;25.40;81.30;;;;;;5000756;28;20047;-89
2020/12/18 03:05:54;;;;;;;2.65;0.80;;;25.40;79.70;;;;;;5094148;28;20090;-87
2020/12/18 03:08:23;;;;;;;1.15;0.82;;;25.30;80.00;;;;;;5096675;28;20032;-87
2020/12/18 03:10:50;;;;;;;10.02;4.45;;;25.30;80.80;;;;;;5101830;28;20015;-89
2020/12/18 03:13:28;;;;;;;4.97;3.33;;;25.30;80.40;;;;;;5116790;28;20039;-92
2020/12/18 03:15:56;;;;;;;6.00;3.75;;;25.30;80.40;;;;;;5098585;28;20084;-90
2020/12/18 03:18:27;;;;;;;4.90;3.50;;;25.30;81.10;;;;;;5114675;28;20024;-90
2020/12/18 03:20:57;;;;;;;11.45;7.75;;;25.30;80.70;;;;;;5101551;28;20096;-88
2020/12/18 03:23:28;;;;;;;9.48;5.78;;;25.30;80.60;;;;;;5090927;28;20032;-88
2020/12/18 03:26:08;;;;;;;7.85;2.95;;;25.30;81.20;;;;;;5105326;28;20040;-90
2020/12/18 03:28:43;;;;;;;4.22;2.17;;;25.20;80.80;;;;;;5108454;28;20389;-88
2020/12/18 03:31:13;;;;;;;4.40;1.42;;;25.20;80.70;;;;;;5104638;28;20083;-89
2020/12/18 03:33:54;;;;;;;2.47;1.20;;;25.20;80.60;;;;;;5106808;28;20048;-89
2020/12/18 03:36:21;;;;;;;4.50;1.08;;;25.20;80.30;;;;;;5088606;28;20020;-88
2020/12/18 03:38:51;;;;;;;2.38;0.70;;;25.20;80.70;;;;;;5088046;28;20331;-88
2020/12/18 03:41:21;;;;;;;5.60;0.85;;;25.20;79.70;;;;;;5088446;28;20028;-86
2020/12/18 03:43:49;;;;;;;2.67;1.02;;;25.20;80.30;;;;;;5105922;28;20069;-87
2020/12/18 03:46:16;;;;;;;2.78;0.93;;;25.20;80.40;;;;;;5087228;28;20020;-86
2020/12/18 03:48:42;;;;;;;0.98;0.75;;;25.20;80.10;;;;;;5087380;28;20020;-87
2020/12/18 03:51:09;;;;;;;3.95;1.10;;;25.20;80.00;;;;;;5087977;28;20238;-88
2020/12/18 03:53:35;;;;;;;1.70;0.60;;;25.20;80.60;;;;;;5087420;28;20031;-88
2020/12/18 03:56:02;;;;;;;1.05;0.90;;;25.10;80.60;;;;;;5087533;28;20095;-87
2020/12/18 03:58:29;;;;;;;2.40;1.00;;;25.10;80.10;;;;;;5105812;28;20360;-88
2020/12/18 04:00:55;;;;;;;2.80;0.65;;;25.10;79.90;;;;;;5087287;28;20046;-89
2020/12/18 04:03:22;;;;;;;3.58;0.75;;;25.10;79.80;;;;;;5088283;28;20024;-87
2020/12/18 04:06:26;;;;;;;5.88;0.90;;;25.10;79.70;;;;;;5088702;28;20043;-88
2020/12/18 04:08:55;;;;;;;1.60;0.73;;;25.00;80.10;;;;;;5104233;28;20228;-89
2020/12/18 04:11:27;;;;;;;3.47;0.90;;;25.00;80.70;;;;;;5104100;28;20079;-89
2020/12/18 04:14:03;;;;;;;1.88;0.57;;;25.00;80.50;;;;;;5100278;28;20080;-89
2020/12/18 04:16:29;;;;;;;;;;;24.90;80.30;;;;;;5087157;28;20047;-89
2020/12/18 04:18:58;;;;;;;1.80;0.93;;;25.00;80.40;;;;;;5104647;28;20199;-89
2020/12/18 04:21:28;;;;;;;1.30;0.85;;;25.00;80.50;;;;;;5101816;28;20099;-88
2020/12/18 04:23:55;;;;;;;3.55;0.82;;;25.00;80.70;;;;;;5105093;28;20016;-88
2020/12/18 04:26:22;;;;;;;2.88;0.90;;;24.90;80.30;;;;;;5086423;28;20027;-89
2020/12/18 04:28:54;;;;;;;1.55;0.65;;;24.90;80.20;;;;;;5086291;28;20012;-89
2020/12/18 04:31:23;;;;;;;1.55;0.80;;;24.90;80.90;;;;;;5053210;28;20347;-89
2020/12/18 04:34:11;;;;;;;2.88;0.95;;;24.90;80.70;;;;;;5087323;28;20079;-89
2020/12/18 04:36:41;;;;;;;2.45;0.85;;;24.80;80.90;;;;;;5076763;28;20029;-90
2020/12/18 04:39:08;;;;;;;2.65;0.77;;;24.80;80.50;;;;;;5060668;28;20024;-89
2020/12/18 04:41:41;;;;;;;1.63;0.75;;;24.80;80.60;;;;;;5062251;28;20024;-87
2020/12/18 04:44:07;;;;;;;;;;;24.80;80.70;;;;;;5060880;28;20033;-89
2020/12/18 04:46:36;;;;;;;0.80;0.60;;;24.80;80.80;;;;;;5061784;28;19905;-87
2020/12/18 04:49:06;;;;;;;0.98;0.60;;;24.70;80.70;;;;;;5045790;28;20343;-87
2020/12/18 04:51:44;;;;;;;3.75;0.82;;;24.60;81.00;;;;;;5060528;28;20045;-87
2020/12/18 04:54:19;;;;;;;4.47;0.90;;;24.60;80.70;;;;;;5061445;28;20040;-86
2020/12/18 04:56:50;;;;;;;2.83;0.85;;;24.60;81.40;;;;;;5029055;28;20044;-87
2020/12/18 04:59:26;;;;;;;1.63;0.82;;;24.60;81.20;;;;;;5061547;28;20032;-87
2020/12/18 05:01:57;;;;;;;3.63;0.95;;;24.50;81.60;;;;;;5029229;28;20024;-87
2020/12/18 05:04:28;;;;;;;2.47;0.70;;;24.50;81.50;;;;;;5059833;28;20041;-88
2020/12/18 05:06:59;;;;;;;1.83;0.70;;;24.50;81.30;;;;;;5029685;28;20037;-89
2020/12/18 05:09:43;;;;;;;3.35;0.80;;;24.50;81.90;;;;;;5040122;28;20049;-87
2020/12/18 05:12:17;;;;;;;2.60;0.90;;;24.50;81.50;;;;;;5025767;28;20197;-88
2020/12/18 05:14:45;;;;;;;2.13;0.90;;;24.50;81.30;;;;;;5041864;28;20041;-88
2020/12/18 05:17:14;;;;;;;2.47;0.80;;;24.50;80.90;;;;;;5025900;28;20036;-87
2020/12/18 05:19:44;;;;;;;2.15;0.80;;;24.50;80.80;;;;;;5041023;28;20036;-88
2020/12/18 05:22:15;;;;;;;1.83;0.90;;;24.50;81.10;;;;;;5041734;28;20030;-87
2020/12/18 05:24:46;;;;;;;3.78;0.88;;;24.40;81.50;;;;;;5022406;28;20077;-87
2020/12/18 05:27:32;;;;;;;1.05;0.88;;;24.40;81.60;;;;;;5041655;28;20025;-89
2020/12/18 05:30:10;;;;;;;1.45;0.80;;;24.30;81.90;;;;;;5045952;28;20025;-88
2020/12/18 05:32:40;;;;;;;3.30;1.00;;;24.30;81.80;;;;;;5049990;28;20032;-88
2020/12/18 05:35:20;;;;;;;2.50;0.73;;;24.30;81.60;;;;;;5067491;28;20040;-87
2020/12/18 05:38:00;;;;;;;3.60;0.80;;;24.30;81.90;;;;;;5034699;28;20431;-87
2020/12/18 05:40:36;;;;;;;2.42;0.80;;;24.30;82.40;;;;;;5049175;28;20033;-88
2020/12/18 05:43:14;;;;;;;4.35;0.88;;;24.30;82.40;;;;;;5067470;28;20032;-88
2020/12/18 05:45:40;;;;;;;1.98;0.60;;;24.30;82.40;;;;;;5063831;28;20028;-87
2020/12/18 05:48:20;;;;;;;3.05;0.98;;;24.20;82.70;;;;;;5067395;28;20021;-87
2020/12/18 05:50:58;;;;;;;2.53;1.00;;;24.20;82.60;;;;;;5067183;28;20019;-88
2020/12/18 05:53:27;;;;;;;2.75;0.82;;;24.20;82.50;;;;;;5064632;28;20029;-87
2020/12/18 05:55:54;;;;;;;1.92;0.80;;;24.20;83.00;;;;;;5065008;28;20033;-87
2020/12/18 05:58:25;;;;;;;3.90;0.80;;;24.20;83.00;;;;;;5065642;28;20320;-88
2020/12/18 06:00:52;;;;;;;2.45;1.00;;;24.20;83.10;;;;;;5065935;28;20323;-88
2020/12/18 06:03:35;;;;;;;3.10;0.70;;;24.10;83.00;;;;;;5066050;28;20025;-87
2020/12/18 06:06:10;;;;;;;2.20;0.80;;;24.10;83.00;;;;;;5066863;28;20029;-89
2020/12/18 06:08:41;;;;;;;1.70;0.90;;;24.10;83.50;;;;;;5079070;28;20036;-87
2020/12/18 06:11:17;;;;;;;1.17;0.90;;;24.00;83.90;;;;;;5086385;28;20021;-88
2020/12/18 06:14:04;;;;;;;2.20;0.93;;;24.00;83.90;;;;;;5084524;28;20067;-88
2020/12/18 06:16:48;;;;;;;3.63;0.90;;;23.90;84.20;;;;;;5084160;28;20028;-88
2020/12/18 06:19:16;;;;;;;2.78;0.75;;;23.90;84.60;;;;;;5085642;28;20025;-88
2020/12/18 06:21:59;;;;;;;1.92;0.90;;;24.00;84.60;;;;;;5084707;28;20017;-88
2020/12/18 06:24:27;;;;;;;;;;;24.00;84.10;;;;;;5087267;28;20032;-87
2020/12/18 06:26:59;;;;;;;3.03;1.25;;;23.90;84.30;;;;;;5085446;28;19916;-86
2020/12/18 06:29:32;;;;;;;2.93;1.07;;;23.90;85.00;;;;;;5068994;28;20096;-87
2020/12/18 06:32:32;;;;;;;2.90;0.90;;;23.80;84.80;;;;;;5086271;28;20466;-88
2020/12/18 06:35:38;;;;;;;3.08;0.90;;;23.80;85.30;;;;;;5068077;28;20228;-90
2020/12/18 06:38:27;;;;;;;2.42;1.30;;;23.80;86.10;;;;;;5085455;28;20033;-88
2020/12/18 06:41:02;;;;;;;2.78;1.27;;;23.80;85.70;;;;;;5086220;28;20030;-88
2020/12/18 06:43:40;;;;;;;3.05;1.35;;;23.80;86.30;;;;;;5081910;28;20039;-87
2020/12/18 06:46:09;;;;;;;3.78;1.20;;;23.80;86.30;;;;;;5084381;28;20024;-89
2020/12/18 06:48:39;;;;;;;4.25;1.40;;;23.80;86.20;;;;;;5085855;28;20028;-88
2020/12/18 06:51:33;;;;;;;2.20;1.30;;;23.80;86.40;;;;;;5099577;28;20036;-89
2020/12/18 06:54:13;;;;;;;1.58;1.30;;;23.70;86.90;;;;;;5084819;28;20208;-87
2020/12/18 06:56:39;;;;;;;1.60;1.30;;;23.80;87.10;;;;;;5084740;28;20023;-88
2020/12/18 06:59:26;;;;;;;3.47;1.40;;;23.80;86.60;;;;;;5083791;28;20033;-90
2020/12/18 07:01:53;;;;;;;2.22;1.42;;;23.80;86.90;;;;;;5084078;28;20043;-87
2020/12/18 07:04:30;;;;;;;2.45;1.30;;;23.80;86.80;;;;;;5084346;28;20055;-88
2020/12/18 07:07:22;;;;;;;4.28;1.30;;;23.80;86.90;;;;;;5085497;28;20092;-89
2020/12/18 07:09:53;;;;;;;1.85;1.30;;;23.90;86.90;;;;;;5069491;28;20037;-90
2020/12/18 07:12:25;;;;;;;4.68;1.50;;;23.80;86.90;;;;;;5105435;28;20047;-89
2020/12/18 07:15:09;;;;;;;3.25;1.52;;;23.80;86.70;;;;;;5104559;28;20235;-88
2020/12/18 07:17:47;;;;;;;2.78;1.40;;;23.90;86.60;;;;;;5104436;28;20024;-90
2020/12/18 07:20:19;;;;;;;2.72;1.40;;;23.90;86.30;;;;;;5087808;28;20051;-89
2020/12/18 07:22:54;;;;;;;2.83;1.02;;;23.90;86.40;;;;;;5087661;28;20058;-89
2020/12/18 07:25:23;;;;;;;2.63;1.35;;;24.00;86.50;;;;;;5105736;28;20056;-88
2020/12/18 07:27:51;;;;;;;2.30;1.30;;;24.00;86.80;;;;;;5087586;28;20020;-89
2020/12/18 07:30:24;;;;;;;3.33;1.27;;;24.10;86.60;;;;;;5086605;28;20030;-89
2020/12/18 07:33:01;;;;;;;2.22;1.25;;;24.10;86.60;;;;;;5105785;28;20020;-91
2020/12/18 07:35:54;;;;;;;4.15;1.45;;;24.10;85.90;;;;;;5104177;28;20366;-90
2020/12/18 07:38:38;;;;;;;2.33;1.10;;;24.10;86.40;;;;;;5104777;28;20027;-91
2020/12/18 07:41:17;;;;;;;3.47;1.40;;;24.10;85.90;;;;;;5088316;28;20024;-89
2020/12/18 07:43:51;;;;;;;2.42;1.20;;;24.10;86.00;;;;;;5070725;28;20107;-89
2020/12/18 07:46:24;;;;;;;4.80;1.33;;;24.10;85.90;;;;;;5063085;28;20037;-89
2020/12/18 07:48:51;;;;;;;4.95;1.40;;;24.10;86.10;;;;;;5029739;28;20029;-88
2020/12/18 07:51:21;;;;;;;3.33;1.42;;;24.10;86.10;;;;;;5062055;28;20039;-87
2020/12/18 07:53:55;;;;;;;2.33;1.10;;;24.10;86.20;;;;;;5046114;28;20021;-87
2020/12/18 07:56:23;;;;;;;4.40;1.75;;;24.10;86.50;;;;;;5062940;28;20364;-86
2020/12/18 07:59:03;;;;;;;3.55;1.30;;;24.10;86.40;;;;;;5029813;28;20032;-86
2020/12/18 08:01:48;;;;;;;3.05;1.20;;;24.20;86.70;;;;;;5045956;28;20021;-86
2020/12/18 08:04:16;;;;;;;2.05;1.20;;;24.20;86.40;;;;;;5062908;28;20020;-86
2020/12/18 08:06:44;;;;;;;1.98;1.20;;;24.20;86.50;;;;;;5062211;28;20075;-86
2020/12/18 08:09:19;;;;;;;1.92;1.20;;;24.20;86.70;;;;;;5062882;28;20021;-87
2020/12/18 08:11:52;;;;;;;5.68;1.52;;;24.20;86.60;;;;;;5046054;28;20033;-90
2020/12/18 08:14:20;;;;;;;2.45;1.40;;;24.20;85.70;;;;;;5030492;28;20260;-88
2020/12/18 08:16:49;;;;;;;1.50;1.13;;;24.20;86.20;;;;;;5044824;28;20036;-87
2020/12/18 08:19:17;;;;;;;1.45;1.33;;;24.20;85.50;;;;;;5029927;28;20059;-88
2020/12/18 08:21:46;;;;;;;3.40;1.15;;;24.20;85.70;;;;;;5062325;28;20078;-88
2020/12/18 08:24:45;;;;;;;2.38;1.13;;;24.30;86.00;;;;;;5062745;28;20052;-89
2020/12/18 08:27:25;;;;;;;3.35;1.33;;;24.30;85.70;;;;;;5063144;28;20068;-89
2020/12/18 08:29:55;;;;;;;2.22;1.20;;;24.20;85.20;;;;;;5061638;28;20037;-88
2020/12/18 08:32:33;;;;;;;1.70;0.90;;;24.20;85.30;;;;;;5062519;28;20063;-91
2020/12/18 08:35:06;;;;;;;2.40;1.50;;;24.20;85.10;;;;;;5044863;28;20028;-91
2020/12/18 08:37:53;;;;;;;2.67;1.10;;;24.20;85.10;;;;;;5062245;28;20325;-93
2020/12/18 08:40:24;;;;;;;2.13;1.30;;;24.10;85.60;;;;;;5062372;28;20310;-91
2020/12/18 08:43:00;;;;;;;1.75;1.10;;;24.10;85.10;;;;;;5062572;28;20313;-92
2020/12/18 08:45:29;;;;;;;1.15;0.80;;;24.20;84.50;;;;;;5045593;28;20085;-88
2020/12/18 08:47:56;;;;;;;1.55;0.88;;;24.20;84.60;;;;;;5029030;28;20025;-91
2020/12/18 08:50:23;;;;;;;2.22;0.95;;;24.20;84.40;;;;;;5060143;28;20096;-90
2020/12/18 08:52:49;;;;;;;3.13;1.20;;;24.30;84.40;;;;;;5062921;28;20025;-90
2020/12/18 08:55:22;;;;;;;2.97;1.20;;;24.30;84.40;;;;;;5063079;28;20029;-91
2020/12/18 08:57:50;;;;;;;1.98;1.10;;;24.20;84.30;;;;;;5063641;28;20028;-91
2020/12/18 09:00:23;;;;;;;3.47;1.00;;;24.20;84.30;;;;;;5063821;28;20052;-89
2020/12/18 09:03:07;;;;;;;2.55;1.20;;;24.20;84.50;;;;;;5067028;28;20059;-89
2020/12/18 09:05:36;;;;;;;4.20;1.20;;;24.20;84.30;;;;;;5067658;28;20044;-88
2020/12/18 09:08:07;;;;;;;1.65;1.13;;;24.30;83.80;;;;;;5067847;28;20048;-88
2020/12/18 09:10:50;;;;;;;2.05;1.02;;;24.30;84.10;;;;;;5067634;28;20009;-90
2020/12/18 09:13:25;;;;;;;2.25;0.98;;;24.30;83.80;;;;;;5081828;28;20044;-91
2020/12/18 09:16:01;;;;;;;2.20;1.15;;;24.30;83.20;;;;;;5086784;28;20095;-90
2020/12/18 09:18:50;;;;;;;1.95;0.98;;;24.30;83.60;;;;;;5086807;28;20071;-89
2020/12/18 09:21:22;;;;;;;2.97;1.10;;;24.30;83.50;;;;;;5084874;28;20070;-89
2020/12/18 09:23:53;;;;;;;3.33;1.27;;;24.30;82.80;;;;;;5087668;28;20021;-89
2020/12/18 09:26:26;;;;;;;2.47;1.00;;;24.30;82.20;;;;;;5086385;28;20039;-88
2020/12/18 09:28:53;;;;;;;1.85;0.93;;;24.30;82.80;;;;;;5087786;28;20020;-89
2020/12/18 09:31:43;;;;;;;3.35;1.05;;;24.30;82.60;;;;;;5088346;28;20396;-90
2020/12/18 09:34:22;;;;;;;1.33;0.90;;;24.30;82.40;;;;;;5049018;28;20039;-89
2020/12/18 09:36:58;;;;;;;2.75;1.38;;;24.30;82.20;;;;;;5032996;28;20040;-92
2020/12/18 09:39:24;;;;;;;1.63;1.10;;;24.40;82.10;;;;;;5049169;28;20108;-91
2020/12/18 09:41:54;;;;;;;2.75;1.40;;;24.40;82.70;;;;;;5065656;28;20024;-91
2020/12/18 09:45:06;;;;;;;2.22;1.00;;;24.40;83.70;;;;;;5048515;28;20049;-93
2020/12/18 09:47:52;;;;;;;3.20;0.90;;;24.30;84.20;;;;;;5045862;28;20100;-93
2020/12/18 09:50:19;;;;;;;1.52;1.00;;;24.30;85.10;;;;;;5029480;28;20021;-94
2020/12/18 09:52:46;;;;;;;4.35;1.67;;;24.30;86.40;;;;;;5045931;28;20288;-91
2020/12/18 09:55:14;;;;;;;4.28;1.60;;;24.30;87.00;;;;;;5029075;28;20064;-91
2020/12/18 09:57:41;;;;;;;5.13;1.67;;;24.20;87.50;;;;;;5029050;28;20025;-92
2020/12/18 10:00:08;;;;;;;2.97;1.48;;;24.20;87.70;;;;;;5029149;28;20061;-92
2020/12/18 10:02:35;;;;;;;2.78;1.33;;;24.10;88.50;;;;;;5029114;28;20449;-94
2020/12/18 10:05:02;;;;;;;4.55;1.23;;;24.00;88.70;;;;;;5029505;28;20379;-93
2020/12/18 10:07:28;;;;;;;3.03;1.35;;;23.90;89.30;;;;;;5029058;28;20025;-93
2020/12/18 10:09:55;;;;;;;2.03;1.10;;;23.80;89.10;;;;;;5029381;28;20036;-93
2020/12/18 10:12:22;;;;;;;3.10;1.20;;;23.80;88.80;;;;;;5045124;28;20037;-93
2020/12/18 10:14:49;;;;;;;1.95;1.00;;;23.80;88.50;;;;;;5028895;28;20033;-91
2020/12/18 10:17:15;;;;;;;3.35;1.20;;;23.80;88.70;;;;;;5028564;28;20221;-90
2020/12/18 10:19:42;;;;;;;1.15;1.05;;;23.90;88.20;;;;;;5028567;28;20057;-92
2020/12/18 10:22:15;;;;;;;2.08;0.93;;;23.80;87.90;;;;;;5028577;28;20256;-91
2020/12/18 10:24:42;;;;;;;4.35;1.30;;;23.80;88.50;;;;;;5028241;28;20041;-89
2020/12/18 10:27:12;;;;;;;2.67;1.10;;;23.70;87.90;;;;;;5027929;28;20140;-91
2020/12/18 10:29:47;;;;;;;2.00;1.13;;;23.70;88.70;;;;;;5028097;28;20241;-88
2020/12/18 10:32:14;;;;;;;3.75;1.20;;;23.70;88.20;;;;;;5027894;28;20079;-89
2020/12/18 10:34:44;;;;;;;4.28;1.42;;;23.80;88.10;;;;;;5027858;28;20022;-89
2020/12/18 10:37:11;;;;;;;6.20;2.28;;;23.80;88.30;;;;;;5041436;28;20039;-88
2020/12/18 10:39:37;;;;;;;3.05;1.30;;;23.80;89.10;;;;;;5085277;28;20116;-89
2020/12/18 10:42:05;;;;;;;4.43;1.20;;;23.70;89.70;;;;;;5085310;28;20100;-89
2020/12/18 10:44:32;;;;;;;2.30;1.08;;;23.60;89.50;;;;;;5085391;28;20031;-89
2020/12/18 10:46:59;;;;;;;2.50;1.30;;;23.70;89.40;;;;;;5086444;28;20016;-89
2020/12/18 10:49:27;;;;;;;2.92;1.48;;;23.70;89.00;;;;;;5085605;28;20016;-88
2020/12/18 10:51:54;;;;;;;2.38;1.30;;;23.70;89.30;;;;;;5084543;28;20032;-89
2020/12/18 10:54:31;;;;;;;6.18;2.28;;;23.80;88.40;;;;;;5093387;28;20012;-88
2020/12/18 10:56:58;;;;;;;3.25;1.45;;;23.80;87.80;;;;;;5094367;28;20219;-87
2020/12/18 10:59:31;;;;;;;3.47;1.80;;;23.80;88.20;;;;;;5096025;28;20020;-87
2020/12/18 11:01:59;;;;;;;4.45;1.40;;;23.90;88.70;;;;;;5094986;28;20317;-87
2020/12/18 11:04:31;;;;;;;3.58;1.60;;;24.00;89.10;;;;;;5100079;28;20068;-87
2020/12/18 11:07:17;;;;;;;3.47;1.60;;;24.00;89.30;;;;;;5075033;28;20032;-87
2020/12/18 11:09:44;;;;;;;3.92;1.85;;;24.10;88.60;;;;;;5073035;28;20335;-88
2020/12/18 11:12:10;;;;;;;1.67;1.30;;;24.10;88.60;;;;;;5054998;28;20044;-86
2020/12/18 11:14:38;;;;;;;2.45;1.55;;;24.30;88.00;;;;;;5072557;28;20029;-86
2020/12/18 11:17:05;;;;;;;2.53;1.48;;;24.30;87.40;;;;;;5066660;28;20013;-84
2020/12/18 11:19:32;;;;;;;1.88;1.17;;;24.40;87.40;;;;;;5064655;28;20248;-88
2020/12/18 11:21:59;;;;;;;3.90;1.30;;;24.50;87.80;;;;;;5065938;28;20082;-88
2020/12/18 11:24:29;;;;;;;2.63;1.70;;;24.50;87.10;;;;;;5063553;28;20336;-89
2020/12/18 11:26:56;;;;;;;6.95;3.53;;;24.50;87.20;;;;;;5031907;28;20020;-89
2020/12/18 11:29:25;;;;;;;5.43;2.42;;;24.60;88.10;;;;;;5063943;28;20059;-88
2020/12/18 11:31:59;;;;;;;5.47;1.83;;;24.60;87.90;;;;;;5061128;28;20031;-88
2020/12/18 11:34:32;;;;;;;3.70;1.50;;;24.50;87.10;;;;;;5066603;28;20035;-91
2020/12/18 11:36:59;;;;;;;3.20;1.20;;;24.60;86.90;;;;;;5061538;28;20070;-90
2020/12/18 11:39:26;;;;;;;6.85;2.05;;;24.60;86.80;;;;;;5063221;28;20064;-88
2020/12/18 11:42:04;;;;;;;6.07;2.78;;;24.70;87.60;;;;;;5063536;28;20021;-89
2020/12/18 11:44:32;;;;;;;3.80;1.65;;;24.70;85.80;;;;;;5029509;28;20041;-88
2020/12/18 11:46:59;;;;;;;5.03;1.85;;;24.80;86.70;;;;;;5102552;28;20038;-88
2020/12/18 11:49:33;;;;;;;2.90;1.70;;;24.80;86.60;;;;;;5085922;28;20043;-93
2020/12/18 11:52:05;;;;;;;2.45;1.40;;;24.90;86.70;;;;;;5083878;28;20017;-89
2020/12/18 11:54:37;;;;;;;2.15;1.45;;;24.90;85.90;;;;;;5086085;28;20028;-90
2020/12/18 11:57:04;;;;;;;5.07;1.38;;;25.10;84.90;;;;;;5084941;28;20028;-89
2020/12/18 11:59:35;;;;;;;3.30;1.40;;;25.20;84.90;;;;;;5086045;28;20052;-90
2020/12/18 12:02:02;;;;;;;3.45;1.58;;;25.20;84.80;;;;;;5085426;28;20313;-91
2020/12/18 12:05:05;;;;;;;3.10;1.60;;;25.20;85.10;;;;;;5089265;28;20048;-93
2020/12/18 12:07:49;;;;;;;7.47;1.60;;;25.30;85.00;;;;;;5053741;28;20027;-90
2020/12/18 12:10:17;;;;;;;3.35;1.83;;;25.40;84.40;;;;;;5067228;28;20029;-90
2020/12/18 12:12:45;;;;;;;4.70;2.22;;;25.50;84.30;;;;;;5066855;28;20232;-89
2020/12/18 12:15:14;;;;;;;3.45;2.33;;;25.50;85.20;;;;;;5067114;28;20032;-89
2020/12/18 12:17:47;;;;;;;3.97;2.00;;;25.40;84.50;;;;;;5066413;28;20036;-93
2020/12/18 12:20:22;;;;;;;2.92;1.55;;;25.40;85.50;;;;;;5083764;28;20024;-92
2020/12/18 12:22:50;;;;;;;16.73;6.63;;;25.30;85.50;;;;;;5067443;28;20029;-94
2020/12/18 12:25:19;;;;;;;2.78;1.92;;;25.30;86.50;;;;;;5066079;28;20036;-93
2020/12/18 12:28:21;;;;;;;2.50;1.88;;;25.30;86.20;;;;;;5066974;28;20217;-95
2020/12/18 12:31:47;;;;;;;5.57;2.47;;;25.30;85.60;;;;;;5084754;28;20035;-93
2020/12/18 12:34:59;;;;;;;2.85;1.95;;;25.40;83.90;;;;;;5047401;28;20033;-93
2020/12/18 12:41:13;;;;;;;4.18;1.70;;;25.70;84.00;;;;;;5271687;23;20054;-94
2020/12/18 12:44:44;;;;;;;4.43;1.73;;;25.80;83.70;;;;;;5131095;28;20041;-90
2020/12/18 12:47:20;;;;;;;3.00;1.40;;;25.80;81.40;;;;;;5095171;28;20024;-91
2020/12/18 12:49:53;;;;;;;2.88;1.50;;;25.90;82.70;;;;;;5067501;28;20037;-92
2020/12/18 12:52:21;;;;;;;2.60;1.40;;;26.00;82.30;;;;;;5065110;28;20035;-92
2020/12/18 12:54:49;;;;;;;2.78;1.30;;;26.10;82.10;;;;;;5047951;28;20098;-91
2020/12/18 12:57:17;;;;;;;2.00;1.27;;;26.20;81.20;;;;;;5048936;28;20084;-92
2020/12/18 12:59:47;;;;;;;1.27;1.10;;;26.20;80.50;;;;;;5057340;28;20041;-90
2020/12/18 13:02:17;;;;;;;2.83;1.40;;;26.20;80.20;;;;;;5048696;28;20236;-89
2020/12/18 13:04:46;;;;;;;1.90;1.13;;;26.30;81.30;;;;;;5050229;28;20041;-91
2020/12/18 13:07:21;;;;;;;3.22;1.60;;;26.40;80.30;;;;;;5050257;28;20021;-90
2020/12/18 13:10:31;;;;;;;2.60;1.40;;;26.30;80.70;;;;;;5051457;28;20060;-93
2020/12/18 13:13:09;;;;;;;3.33;1.40;;;26.30;80.00;;;;;;5129639;22;20057;-94
2020/12/18 13:15:53;;;;;;;2.40;1.15;;;26.30;80.60;;;;;;5087931;28;20193;-94
2020/12/18 13:18:21;;;;;;;1.95;1.10;;;26.40;81.10;;;;;;5088114;28;20102;-93
2020/12/18 13:21:09;;;;;;;3.30;1.30;;;26.30;79.90;;;;;;5090235;28;20021;-93
2020/12/18 13:23:52;;;;;;;2.53;1.15;;;26.30;79.60;;;;;;5087403;28;20025;-93
2020/12/18 13:26:19;;;;;;;2.30;1.33;;;26.20;80.00;;;;;;5052232;28;20041;-93
2020/12/18 13:28:49;;;;;;;4.07;1.38;;;26.10;81.10;;;;;;5048428;28;20037;-90
2020/12/18 13:31:39;;;;;;;5.70;1.58;;;26.10;81.10;;;;;;5049348;28;20025;-91
2020/12/18 13:34:05;;;;;;;3.20;1.70;;;26.10;83.20;;;;;;5046823;28;20033;-89
2020/12/18 13:36:33;;;;;;;4.13;1.42;;;26.10;83.00;;;;;;5046505;28;20025;-93
2020/12/18 13:39:24;;;;;;;4.90;2.20;;;26.00;82.80;;;;;;5048018;28;20036;-93
2020/12/18 13:41:57;;;;;;;3.40;1.98;;;26.20;83.30;;;;;;5040981;28;20035;-94
2020/12/18 13:44:24;;;;;;;4.72;1.75;;;26.30;83.20;;;;;;5045435;28;20102;-94
2020/12/18 13:46:53;;;;;;;1.92;1.45;;;26.30;83.20;;;;;;5026074;28;20030;-94
2020/12/18 13:49:22;;;;;;;57.83;7.40;;;26.30;83.00;;;;;;5029438;28;20025;-94
2020/12/18 13:51:53;;;;;;;11.82;3.50;;;26.10;84.40;;;;;;5028519;28;20064;-93
2020/12/18 13:54:27;;;;;;;4.07;1.60;;;26.20;84.10;;;;;;5030699;28;20245;-88
2020/12/18 13:57:05;;;;;;;5.63;1.75;;;25.90;84.30;;;;;;5040280;28;20084;-90
2020/12/18 13:59:37;;;;;;;4.22;1.88;;;25.70;86.60;;;;;;5066885;28;20021;-89
2020/12/18 14:02:08;;;;;;;4.28;1.70;;;25.70;88.20;;;;;;5067847;28;20017;-91
2020/12/18 14:04:39;;;;;;;3.13;1.83;;;25.60;88.70;;;;;;5069289;28;20036;-88